Time;durP1;ratioP1;P1;durP2;ratioP2;P2;SDS_P1;SDS_P2;PMS_P1;PMS_P2;Temp;Humidity;BMP_temperature;BMP_pressure;BME280_temperature;BME280_humidity;BME280_pressure;Samples;Min_cycle;Max_cycle;Signal;HPM_P1;HPM_P2
2021/12/23 15:32:16;;;;;;;;;;;;;;;;;;5113600;27;19916;-91
2021/12/23 15:35:02;;;;;;;;;;;;;;;;;;5112761;28;19977;-91
2021/12/23 15:37:31;;;;;;;;;;;-10.50;99.90;;;;;;5112081;28;19916;-92
2021/12/23 15:39:57;;;;;;;;;;;-10.50;99.90;;;;;;5134434;28;20315;-91
2021/12/23 15:42:24;;;;;;;;;;;-10.40;99.90;;;;;;5133140;28;20011;-90
2021/12/23 15:44:50;;;;;;;;;;;-10.40;99.90;;;;;;5163826;27;19908;-91
2021/12/23 15:47:17;;;;;;;;;;;-10.10;99.90;;;;;;5128312;28;19914;-91
2021/12/23 15:49:43;;;;;;;;;;;-10.30;99.90;;;;;;5120370;28;19915;-91
2021/12/23 15:52:09;;;;;;;;;;;-10.20;99.90;;;;;;5125405;28;19915;-91
2021/12/23 15:54:35;;;;;;;;;;;-10.20;99.90;;;;;;5131047;28;19918;-91
2021/12/23 16:38:50;;;;;;;;;;;;;;;;;;5092691;28;20345;-90
2021/12/23 16:41:16;;;;;;;;;;;;;;;;;;5090570;28;20012;-90
2021/12/23 16:43:42;;;;;;;;;;;;;;;;;;5090441;28;19952;-90
2021/12/23 16:46:08;;;;;;;;;;;-11.40;99.90;;;;;;5090460;28;19915;-92
2021/12/23 16:48:33;;;;;;;;;;;-11.30;99.90;;;;;;5091568;28;19935;-90
2021/12/23 16:50:59;;;;;;;;;;;-11.40;99.90;;;;;;5085981;28;19920;-90
2021/12/23 16:53:25;;;;;;;;;;;-11.30;99.90;;;;;;5070814;28;20054;-90
2021/12/23 16:58:29;;;;;;;;;;;-11.10;99.90;;;;;;5071953;28;19920;-93
2021/12/23 17:00:56;;;;;;;;;;;-11.10;99.90;;;;;;5070159;28;19908;-90
2021/12/23 17:03:22;;;;;;;;;;;-11.10;99.90;;;;;;5070927;28;19921;-92
2021/12/23 17:05:48;;;;;;;;;;;-11.00;99.90;;;;;;5070734;28;19909;-91
2021/12/23 17:08:15;;;;;;;;;;;-11.00;99.90;;;;;;5069975;28;19909;-92
2021/12/23 17:10:41;;;;;;;;;;;-10.90;99.90;;;;;;5071335;28;19915;-92
2021/12/23 17:13:07;;;;;;;;;;;-10.90;99.90;;;;;;5070061;28;19909;-92
2021/12/23 17:15:32;;;;;;;;;;;-11.00;99.90;;;;;;5070152;28;20008;-91
2021/12/23 17:18:00;;;;;;;;;;;-10.90;99.90;;;;;;5069786;28;19913;-92
2021/12/23 17:21:47;;;;;;;;;;;-10.90;99.90;;;;;;5069763;28;19916;-91
2021/12/23 17:23:16;;;;;;;;;;;-10.90;99.90;;;;;;5074937;28;19912;-92
2021/12/23 17:25:41;;;;;;;;;;;-10.90;99.90;;;;;;5087710;28;20273;-91
2021/12/23 17:28:08;;;;;;;;;;;-10.90;99.90;;;;;;5082358;28;19909;-92
2021/12/23 17:30:34;;;;;;;;;;;-10.90;99.90;;;;;;5090204;28;19908;-92
2021/12/23 17:33:00;;;;;;;;;;;-10.90;99.90;;;;;;5089184;28;19912;-90
2021/12/23 17:35:29;;;;;;;;;;;-10.90;99.90;;;;;;5074591;28;19913;-92
2021/12/23 17:37:57;;;;;;;;;;;-11.00;99.90;;;;;;5088589;28;20352;-92
2021/12/23 17:40:23;;;;;;;;;;;-11.00;99.90;;;;;;5079390;28;19995;-92
2021/12/23 17:42:49;;;;;;;;;;;-11.00;99.90;;;;;;5078475;28;19909;-93
2021/12/23 17:45:15;;;;;;;;;;;-11.10;99.90;;;;;;5077059;28;20011;-93
2021/12/23 17:47:40;;;;;;;;;;;-11.10;99.90;;;;;;5086229;28;20321;-94
2021/12/23 18:38:45;;;;;;;;;;;;;;;;;;5133740;27;19911;-92
2021/12/23 18:41:18;;;;;;;;;;;;;;;;;;5131787;28;19955;-91
2021/12/23 18:43:48;;;;;;;;;;;-12.50;99.90;;;;;;5120394;28;19961;-92
2021/12/23 21:18:45;;;;;;;;;;;;;;;;;;5129843;27;19922;-94
2021/12/23 21:21:11;;;;;;;;;;;;;;;;;;5112048;28;20343;-94
2021/12/23 21:23:37;;;;;;;;;;;;;;;;;;5111602;28;19908;-95
